createdAt,value
2022-09-17T00:01:48.070Z,1.10
2022-09-17T00:04:16.992Z,0.70
2022-09-17T00:06:45.999Z,1.13
2022-09-17T00:09:15.761Z,1.27
2022-09-17T00:11:45.645Z,0.80
2022-09-17T00:14:18.617Z,1.88
2022-09-17T00:16:50.341Z,0.82
2022-09-17T00:19:22.974Z,1.20
2022-09-17T00:21:52.603Z,1.05
2022-09-17T00:24:22.984Z,0.95
2022-09-17T00:26:53.600Z,0.70
2022-09-17T00:29:24.352Z,1.20
2022-09-17T00:31:53.313Z,0.93
2022-09-17T00:34:22.436Z,1.02
2022-09-17T00:36:51.508Z,1.10
2022-09-17T00:39:20.317Z,0.90
2022-09-17T00:41:49.308Z,0.82
2022-09-17T00:44:45.004Z,1.20
2022-09-17T00:47:22.225Z,0.70
2022-09-17T00:49:55.751Z,0.90
2022-09-17T00:52:30.899Z,0.80
2022-09-17T00:55:09.267Z,0.90
2022-09-17T00:57:38.960Z,1.17
2022-09-17T01:00:11.047Z,1.00
2022-09-17T01:02:40.382Z,1.60
2022-09-17T01:05:10.599Z,1.00
2022-09-17T01:08:02.495Z,1.02
2022-09-17T01:10:51.446Z,1.00
2022-09-17T01:13:31.459Z,0.68
2022-09-17T01:16:14.617Z,0.57
2022-09-17T01:18:54.805Z,0.82
2022-09-17T01:21:44.256Z,1.17
2022-09-17T01:24:46.217Z,0.80
2022-09-17T01:27:52.912Z,0.90
2022-09-17T01:30:50.948Z,1.10
2022-09-17T01:33:27.755Z,1.35
2022-09-17T01:36:07.754Z,0.80
2022-09-17T01:38:42.897Z,1.00
2022-09-17T01:41:20.954Z,1.03
2022-09-17T01:43:57.935Z,0.93
2022-09-17T01:46:33.892Z,0.77
2022-09-17T01:49:06.405Z,1.00
2022-09-17T01:51:40.785Z,1.13
2022-09-17T01:54:16.210Z,1.25
2022-09-17T01:56:51.594Z,1.00
2022-09-17T01:59:25.554Z,1.17
2022-09-17T02:02:02.003Z,0.90
2022-09-17T02:04:34.964Z,1.17
2022-09-17T02:07:08.343Z,1.13
2022-09-17T02:09:43.343Z,1.15
2022-09-17T02:12:16.850Z,1.00
2022-09-17T02:14:50.388Z,1.13
2022-09-17T02:17:28.539Z,1.30
2022-09-17T02:19:57.944Z,0.85
2022-09-17T02:22:33.230Z,0.93
2022-09-17T02:25:08.040Z,0.90
2022-09-17T02:27:46.093Z,1.00
2022-09-17T02:35:32.163Z,1.10
2022-09-17T02:38:02.486Z,1.00
2022-09-17T02:40:46.154Z,1.05
2022-09-17T02:43:23.336Z,0.82
2022-09-17T02:46:08.656Z,0.80
2022-09-17T02:49:17.250Z,1.02
2022-09-17T02:51:57.865Z,0.88
2022-09-17T02:54:35.467Z,1.00
2022-09-17T02:57:20.930Z,1.40
2022-09-17T02:59:57.792Z,1.02
2022-09-17T03:02:31.726Z,1.23
2022-09-17T03:05:03.508Z,1.20
2022-09-17T03:07:34.054Z,1.00
2022-09-17T03:10:03.421Z,1.30
2022-09-17T03:12:33.026Z,1.13
2022-09-17T03:15:03.427Z,1.10
2022-09-17T03:17:33.292Z,1.17
2022-09-17T03:20:02.570Z,1.00
2022-09-17T03:22:31.376Z,0.73
2022-09-17T03:25:01.899Z,1.40
2022-09-17T03:27:30.859Z,0.93
2022-09-17T03:29:59.663Z,0.90
2022-09-17T03:32:28.866Z,1.00
2022-09-17T03:34:57.835Z,1.00
2022-09-17T03:37:29.917Z,0.82
2022-09-17T03:40:04.938Z,0.70
2022-09-17T03:42:34.089Z,0.70
2022-09-17T03:45:03.454Z,1.10
2022-09-17T03:47:32.401Z,1.00
2022-09-17T03:50:01.253Z,0.85
2022-09-17T03:52:30.434Z,0.68
2022-09-17T03:54:59.551Z,0.50
2022-09-17T03:57:29.828Z,0.90
2022-09-17T03:59:59.066Z,0.73
2022-09-17T04:02:28.439Z,0.60
2022-09-17T04:04:57.526Z,0.90
2022-09-17T04:07:26.739Z,1.05
2022-09-17T04:09:55.774Z,0.90
2022-09-17T04:12:24.920Z,0.60
2022-09-17T04:14:55.534Z,0.80
2022-09-17T04:17:24.550Z,0.95
2022-09-17T04:19:53.590Z,0.77
2022-09-17T04:22:23.072Z,1.00
2022-09-17T04:24:52.075Z,0.80
2022-09-17T04:27:21.339Z,0.90
2022-09-17T04:29:50.457Z,0.95
2022-09-17T04:32:20.724Z,1.10
2022-09-17T04:34:49.808Z,1.08
2022-09-17T04:37:19.970Z,1.65
2022-09-17T04:39:49.294Z,1.20
2022-09-17T04:42:18.317Z,1.20
2022-09-17T04:44:47.563Z,1.30
2022-09-17T04:47:16.750Z,1.25
2022-09-17T04:49:47.018Z,1.50
2022-09-17T04:52:16.389Z,1.20
2022-09-17T04:54:45.505Z,1.50
2022-09-17T04:57:14.410Z,1.35
2022-09-17T04:59:43.415Z,1.40
2022-09-17T05:02:12.450Z,1.50
2022-09-17T05:04:41.541Z,1.33
2022-09-17T05:07:13.827Z,1.42
2022-09-17T05:09:43.520Z,1.25
2022-09-17T05:12:12.746Z,1.48
2022-09-17T05:14:41.622Z,1.75
2022-09-17T05:17:10.704Z,1.60
2022-09-17T05:19:39.938Z,1.92
2022-09-17T05:22:08.917Z,1.75
2022-09-17T05:24:39.967Z,1.50
2022-09-17T05:27:09.748Z,1.50
2022-09-17T05:29:39.976Z,1.60
2022-09-17T05:32:09.278Z,1.77
2022-09-17T05:34:38.497Z,1.63
2022-09-17T05:37:07.485Z,1.40
2022-09-17T05:39:36.418Z,1.50
2022-09-17T05:42:07.529Z,1.60
2022-09-17T05:44:36.604Z,1.30
2022-09-17T05:47:05.999Z,1.55
2022-09-17T05:49:35.173Z,1.52
2022-09-17T05:52:04.695Z,1.70
2022-09-17T05:54:33.604Z,1.55
2022-09-17T05:57:02.843Z,1.27
2022-09-17T05:59:33.479Z,1.52
2022-09-17T06:02:02.597Z,1.33
2022-09-17T06:04:34.862Z,1.33
2022-09-17T06:07:07.569Z,1.67
2022-09-17T06:09:38.041Z,1.85
2022-09-17T06:12:07.934Z,1.30
2022-09-17T06:14:38.472Z,1.45
2022-09-17T06:17:07.613Z,1.60
2022-09-17T06:19:36.636Z,1.65
2022-09-17T06:22:06.143Z,1.50
2022-09-17T06:24:35.450Z,1.40
2022-09-17T06:27:05.093Z,1.70
2022-09-17T06:29:34.221Z,1.73
2022-09-17T06:32:05.260Z,1.48
2022-09-17T06:34:34.518Z,1.63
2022-09-17T06:37:03.670Z,1.40
2022-09-17T06:39:32.663Z,1.30
2022-09-17T06:42:01.748Z,1.70
2022-09-17T06:44:30.887Z,1.52
2022-09-17T06:47:00.430Z,1.33
2022-09-17T06:49:31.303Z,1.48
2022-09-17T06:52:00.698Z,1.52
2022-09-17T06:54:29.713Z,1.60
2022-09-17T06:56:58.827Z,1.58
2022-09-17T06:59:28.463Z,1.45
2022-09-17T07:01:57.853Z,1.60
2022-09-17T07:04:26.915Z,1.58
2022-09-17T07:06:57.745Z,1.50
2022-09-17T07:09:26.614Z,1.52
2022-09-17T07:11:56.275Z,1.15
2022-09-17T07:14:25.829Z,1.90
2022-09-17T07:16:54.884Z,1.30
2022-09-17T07:19:23.750Z,1.30
2022-09-17T07:21:53.018Z,1.25
2022-09-17T07:24:23.533Z,1.33
2022-09-17T07:26:52.742Z,1.20
2022-09-17T07:29:23.252Z,1.50
2022-09-17T07:31:52.584Z,1.15
2022-09-17T07:34:22.039Z,1.60
2022-09-17T07:36:51.198Z,1.25
2022-09-17T07:39:20.212Z,1.30
2022-09-17T07:41:50.437Z,1.15
2022-09-17T07:44:19.445Z,1.15
2022-09-17T07:46:48.668Z,1.15
2022-09-17T07:49:17.927Z,1.10
2022-09-17T07:51:46.944Z,1.20
2022-09-17T07:54:15.963Z,1.20
2022-09-17T07:56:45.317Z,1.60
2022-09-17T07:59:15.997Z,1.83
2022-09-17T08:01:45.189Z,1.20
2022-09-17T08:04:14.251Z,1.10
2022-09-17T08:06:43.994Z,1.25
2022-09-17T08:09:15.248Z,1.25
2022-09-17T08:11:55.664Z,1.17
2022-09-17T08:14:29.691Z,1.00
2022-09-17T08:16:59.554Z,1.20
2022-09-17T08:19:31.341Z,1.08
2022-09-17T08:22:00.482Z,1.08
2022-09-17T08:24:29.832Z,1.20
2022-09-17T08:26:59.084Z,1.40
2022-09-17T08:29:34.521Z,1.35
2022-09-17T08:32:04.480Z,1.20
2022-09-17T08:34:41.129Z,1.30
2022-09-17T08:37:11.452Z,1.20
2022-09-17T08:39:41.058Z,1.20
2022-09-17T08:42:18.419Z,1.23
2022-09-17T08:44:52.187Z,1.50
2022-09-17T08:47:27.428Z,1.30
2022-09-17T08:49:59.894Z,2.00
2022-09-17T08:53:05.215Z,1.70
2022-09-17T08:55:41.110Z,1.55
2022-09-17T08:58:35.581Z,1.30
2022-09-17T09:01:20.343Z,1.60
2022-09-17T09:04:06.293Z,1.40
2022-09-17T09:06:42.475Z,1.73
2022-09-17T09:09:16.308Z,1.40
2022-09-17T09:11:48.529Z,1.33
2022-09-17T09:14:22.746Z,1.15
2022-09-17T09:16:56.027Z,1.57
2022-09-17T09:19:28.189Z,1.15
2022-09-17T09:22:05.395Z,1.40
2022-09-17T09:24:41.685Z,1.35
2022-09-17T09:27:19.463Z,1.40
2022-09-17T09:29:58.687Z,1.40
2022-09-17T09:32:46.642Z,1.83
2022-09-17T09:35:20.318Z,1.15
2022-09-17T09:37:57.726Z,1.23
2022-09-17T09:40:37.736Z,1.00
2022-09-17T09:43:19.256Z,1.00
2022-09-17T09:46:17.130Z,1.20
2022-09-17T09:48:59.154Z,1.10
2022-09-17T09:51:40.365Z,1.20
2022-09-17T09:54:23.642Z,1.02
2022-09-17T09:57:03.577Z,1.00
2022-09-17T09:59:33.347Z,1.08
2022-09-17T10:02:02.299Z,1.20
2022-09-17T10:04:33.520Z,0.90
2022-09-17T10:07:05.800Z,0.95
2022-09-17T10:09:37.100Z,1.08
2022-09-17T10:12:17.721Z,1.00
2022-09-17T10:14:48.460Z,0.95
2022-09-17T10:17:23.582Z,1.08
2022-09-17T10:22:54.446Z,0.80
2022-09-17T10:25:31.583Z,0.70
2022-09-17T10:28:04.018Z,0.80
2022-09-17T10:30:33.497Z,0.90
2022-09-17T10:33:22.386Z,1.20
2022-09-17T10:36:02.860Z,0.93
2022-09-17T10:38:35.193Z,0.68
2022-09-17T10:41:16.072Z,0.57
2022-09-17T10:43:46.375Z,0.63
2022-09-17T10:46:21.794Z,0.50
2022-09-17T10:49:06.945Z,0.60
2022-09-17T10:51:38.112Z,0.30
2022-09-17T10:54:43.428Z,0.60
2022-09-17T11:00:05.970Z,0.63
2022-09-17T11:03:10.811Z,0.50
2022-09-17T11:06:04.439Z,0.45
2022-09-17T11:08:40.068Z,0.30
2022-09-17T11:11:13.110Z,0.40
2022-09-17T11:13:51.002Z,0.32
2022-09-17T11:16:34.575Z,0.30
2022-09-17T11:19:20.616Z,0.35
2022-09-17T11:21:56.059Z,0.30
2022-09-17T11:25:03.594Z,0.40
2022-09-17T11:27:56.958Z,0.32
2022-09-17T11:30:28.927Z,0.40
2022-09-17T11:33:31.088Z,0.52
2022-09-17T11:36:05.448Z,1.02
2022-09-17T11:38:40.915Z,0.60
2022-09-17T11:41:16.553Z,0.70
2022-09-17T11:43:52.124Z,0.80
2022-09-17T11:46:26.072Z,0.60
2022-09-17T11:49:02.287Z,0.60
2022-09-17T11:51:35.561Z,0.60
2022-09-17T11:54:15.639Z,0.93
2022-09-17T11:56:47.486Z,0.90
2022-09-17T11:59:25.695Z,0.60
2022-09-17T12:01:58.710Z,0.90
2022-09-17T12:04:42.417Z,0.80
2022-09-17T12:07:20.975Z,0.75
2022-09-17T12:09:56.992Z,1.02
2022-09-17T12:15:23.801Z,0.50
2022-09-17T12:18:30.428Z,0.50
2022-09-17T12:20:56.789Z,0.50
2022-09-17T12:23:34.862Z,0.60
2022-09-17T12:26:15.460Z,0.65
2022-09-17T12:28:57.674Z,0.75
2022-09-17T12:31:37.956Z,0.65
2022-09-17T12:34:32.371Z,0.70
2022-09-17T12:37:10.023Z,0.70
2022-09-17T12:40:05.828Z,0.60
2022-09-17T12:42:52.150Z,0.40
2022-09-17T12:45:50.933Z,0.47
2022-09-17T12:49:00.840Z,0.43
2022-09-17T12:51:51.545Z,0.40
2022-09-17T12:54:43.064Z,0.30
2022-09-17T12:57:26.246Z,0.50
2022-09-17T13:00:05.411Z,0.47
2022-09-17T13:02:44.400Z,0.50
2022-09-17T13:05:39.797Z,0.90
2022-09-17T13:08:28.892Z,1.13
2022-09-17T13:11:26.487Z,2.05
2022-09-17T13:14:02.238Z,0.50
2022-09-17T13:16:39.483Z,0.43
2022-09-17T13:19:32.079Z,0.50
2022-09-17T13:22:07.102Z,0.60
2022-09-17T13:24:37.673Z,0.70
2022-09-17T13:27:20.141Z,0.50
2022-09-17T13:30:02.545Z,0.70
2022-09-17T13:32:50.141Z,0.60
2022-09-17T13:35:50.168Z,0.77
2022-09-17T13:38:24.400Z,0.50
2022-09-17T13:41:13.895Z,0.50
2022-09-17T13:43:47.846Z,0.50
2022-09-17T13:48:56.219Z,0.40
2022-09-17T13:51:49.224Z,0.63
2022-09-17T13:54:22.388Z,0.50
2022-09-17T13:57:10.944Z,0.60
2022-09-17T13:59:53.335Z,0.60
2022-09-17T14:02:37.841Z,0.60
2022-09-17T14:05:33.720Z,0.70
2022-09-17T14:08:31.178Z,0.60
2022-09-17T14:11:06.001Z,0.50
2022-09-17T14:13:46.058Z,0.40
2022-09-17T14:16:46.979Z,0.40
2022-09-17T14:19:37.833Z,0.60
2022-09-17T14:22:17.383Z,0.47
2022-09-17T14:24:52.603Z,0.45
2022-09-17T14:27:55.845Z,0.65
2022-09-17T14:30:27.676Z,1.08
2022-09-17T14:33:04.914Z,0.60
2022-09-17T14:35:38.321Z,0.40
2022-09-17T14:38:15.261Z,0.60
2022-09-17T14:40:46.964Z,0.60
2022-09-17T14:43:23.178Z,0.73
2022-09-17T14:45:54.748Z,0.70
2022-09-17T14:48:32.364Z,0.73
2022-09-17T14:51:29.598Z,0.40
2022-09-17T14:54:27.242Z,0.50
2022-09-17T14:56:59.885Z,0.60
2022-09-17T14:59:50.136Z,0.90
2022-09-17T15:02:35.889Z,0.60
2022-09-17T15:05:19.205Z,0.65
2022-09-17T15:07:49.163Z,0.82
2022-09-17T15:10:20.978Z,0.80
2022-09-17T15:12:51.779Z,0.70
2022-09-17T15:15:25.382Z,0.82
2022-09-17T15:17:55.694Z,0.60
2022-09-17T15:20:29.007Z,0.60
2022-09-17T15:23:08.808Z,0.75
2022-09-17T15:25:39.675Z,1.27
2022-09-17T15:28:21.527Z,0.90
2022-09-17T15:30:53.875Z,0.60
2022-09-17T15:33:24.415Z,0.88
2022-09-17T15:36:10.815Z,0.93
2022-09-17T15:38:42.428Z,21.63
2022-09-17T15:41:31.173Z,1.10
2022-09-17T15:44:30.864Z,1.17
2022-09-17T15:47:52.514Z,1.13
2022-09-17T15:50:25.304Z,1.25
2022-09-17T15:53:13.955Z,1.48
2022-09-17T15:55:45.435Z,1.30
2022-09-17T15:58:26.960Z,1.08
2022-09-17T16:01:51.193Z,1.00
2022-09-17T16:04:23.555Z,1.65
2022-09-17T16:07:02.476Z,1.08
2022-09-17T16:09:44.105Z,1.50
2022-09-17T16:12:15.342Z,1.25
2022-09-17T16:14:46.514Z,1.63
2022-09-17T16:17:46.477Z,1.40
2022-09-17T16:20:19.897Z,1.20
2022-09-17T16:22:51.058Z,1.38
2022-09-17T16:25:21.942Z,1.20
2022-09-17T16:27:54.683Z,1.55
2022-09-17T16:30:25.998Z,2.30
2022-09-17T16:32:54.981Z,1.70
2022-09-17T16:35:25.855Z,4.15
2022-09-17T16:37:57.380Z,5.95
2022-09-17T16:40:29.147Z,2.45
2022-09-17T16:43:01.094Z,3.10
2022-09-17T16:45:30.621Z,5.45
2022-09-17T16:47:59.875Z,5.88
2022-09-17T16:50:28.989Z,5.60
2022-09-17T16:53:04.690Z,5.03
2022-09-17T16:55:34.453Z,6.13
2022-09-17T16:58:03.863Z,5.22
2022-09-17T17:00:33.077Z,5.15
2022-09-17T17:03:02.214Z,5.07
2022-09-17T17:05:31.553Z,5.53
2022-09-17T17:08:06.442Z,5.55
2022-09-17T17:10:37.116Z,5.82
2022-09-17T17:13:06.619Z,5.25
2022-09-17T17:15:35.598Z,4.95
2022-09-17T17:18:04.839Z,4.30
2022-09-17T17:20:36.146Z,5.88
2022-09-17T17:23:06.509Z,6.18
2022-09-17T17:25:35.390Z,5.50
2022-09-17T17:28:04.609Z,5.82
2022-09-17T17:30:35.094Z,6.10
2022-09-17T17:33:04.518Z,6.47
2022-09-17T17:35:33.585Z,7.85
2022-09-17T17:38:03.069Z,7.25
2022-09-17T17:40:33.578Z,7.25
2022-09-17T17:43:04.558Z,7.53
2022-09-17T17:45:33.758Z,8.73
2022-09-17T17:48:03.024Z,8.20
2022-09-17T17:50:32.623Z,8.15
2022-09-17T17:53:02.189Z,7.57
2022-09-17T17:55:33.040Z,6.85
2022-09-17T17:58:02.496Z,7.25
2022-09-17T18:00:31.347Z,7.28
2022-09-17T18:03:00.628Z,7.75
2022-09-17T18:05:30.007Z,7.32
2022-09-17T18:07:59.183Z,7.45
2022-09-17T18:10:28.157Z,6.97
2022-09-17T18:12:58.813Z,8.20
2022-09-17T18:15:27.803Z,7.85
2022-09-17T18:17:56.909Z,10.80
2022-09-17T18:20:27.088Z,11.13
2022-09-17T18:22:56.120Z,11.25
2022-09-17T18:25:28.654Z,10.75
2022-09-17T18:27:59.467Z,10.63
2022-09-17T18:30:29.143Z,11.00
2022-09-17T18:32:58.424Z,10.73
2022-09-17T18:35:27.996Z,11.05
2022-09-17T18:37:57.037Z,13.52
2022-09-17T18:40:26.223Z,12.68
2022-09-17T18:42:55.167Z,14.02
2022-09-17T18:45:25.490Z,17.63
2022-09-17T18:47:55.013Z,19.23
2022-09-17T18:50:24.197Z,19.20
2022-09-17T18:52:53.342Z,23.00
2022-09-17T18:55:22.559Z,27.38
2022-09-17T18:57:54.072Z,24.42
2022-09-17T19:00:25.614Z,20.77
2022-09-17T19:02:54.647Z,20.98
2022-09-17T19:05:24.054Z,22.02
2022-09-17T19:07:54.071Z,19.52
2022-09-17T19:10:23.798Z,22.55
2022-09-17T19:12:52.918Z,22.83
2022-09-17T19:15:24.442Z,20.75
2022-09-17T19:17:55.340Z,19.60
2022-09-17T19:20:26.313Z,18.50
2022-09-17T19:22:57.335Z,17.90
2022-09-17T19:25:51.167Z,16.10
2022-09-17T19:28:21.952Z,16.23
2022-09-17T19:30:51.647Z,17.98
2022-09-17T19:33:21.985Z,16.40
2022-09-17T19:35:51.431Z,16.90
2022-09-17T19:38:20.477Z,16.17
2022-09-17T19:40:58.372Z,15.57
2022-09-17T19:43:28.705Z,14.88
2022-09-17T19:46:02.761Z,13.75
2022-09-17T19:48:35.811Z,12.05
2022-09-17T19:51:06.500Z,11.82
2022-09-17T19:53:36.471Z,11.27
2022-09-17T19:56:08.039Z,10.85
2022-09-17T19:58:37.504Z,9.18
2022-09-17T20:01:06.795Z,9.40
2022-09-17T20:03:39.113Z,7.82
2022-09-17T20:06:10.768Z,8.55
2022-09-17T20:08:47.190Z,8.13
2022-09-17T20:11:18.142Z,8.00
2022-09-17T20:13:47.545Z,8.77
2022-09-17T20:16:19.788Z,8.45
2022-09-17T20:18:52.157Z,8.00
2022-09-17T20:21:24.621Z,8.40
2022-09-17T20:23:54.385Z,7.82
2022-09-17T20:26:23.804Z,7.13
2022-09-17T20:28:54.912Z,6.68
2022-09-17T20:31:26.862Z,7.45
2022-09-17T20:33:59.405Z,6.40
2022-09-17T20:36:30.976Z,5.40
2022-09-17T20:39:12.226Z,6.45
2022-09-17T20:41:49.408Z,5.40
2022-09-17T20:44:18.807Z,5.53
2022-09-17T20:46:48.122Z,5.85
2022-09-17T20:49:18.649Z,5.70
2022-09-17T20:51:47.650Z,5.55
2022-09-17T20:54:16.695Z,5.55
2022-09-17T20:56:46.602Z,5.00
2022-09-17T20:59:18.690Z,4.95
2022-09-17T21:01:50.047Z,5.13
2022-09-17T21:04:21.997Z,4.32
2022-09-17T21:06:54.293Z,4.10
2022-09-17T21:09:23.768Z,5.22
2022-09-17T21:11:53.035Z,6.00
2022-09-17T21:14:24.213Z,4.85
2022-09-17T21:16:56.051Z,4.65
2022-09-17T21:19:26.590Z,6.00
2022-09-17T21:21:56.397Z,5.22
2022-09-17T21:24:25.956Z,4.65
2022-09-17T21:26:55.096Z,4.03
2022-09-17T21:29:23.947Z,4.30
2022-09-17T21:31:53.064Z,4.55
2022-09-17T21:34:22.337Z,4.40
2022-09-17T21:36:52.616Z,3.90
2022-09-17T21:39:21.434Z,4.25
2022-09-17T21:41:50.796Z,3.58
2022-09-17T21:44:19.625Z,3.80
2022-09-17T21:46:49.749Z,4.30
2022-09-17T21:49:19.094Z,5.25
2022-09-17T21:51:47.986Z,8.57
2022-09-17T21:54:18.892Z,10.00
2022-09-17T21:56:48.471Z,8.07
2022-09-17T21:59:18.156Z,7.13
2022-09-17T22:01:50.099Z,8.57
2022-09-17T22:04:20.960Z,8.50
2022-09-17T22:06:51.686Z,9.15
2022-09-17T22:09:24.425Z,9.40
2022-09-17T22:11:54.203Z,8.45
2022-09-17T22:14:24.655Z,8.40
2022-09-17T22:16:57.095Z,7.90
2022-09-17T22:19:27.337Z,10.48
2022-09-17T22:21:57.453Z,11.80
2022-09-17T22:24:28.926Z,11.25
2022-09-17T22:26:58.578Z,8.35
2022-09-17T22:29:31.622Z,9.10
2022-09-17T22:32:00.913Z,8.18
2022-09-17T22:34:30.017Z,6.60
2022-09-17T22:37:00.211Z,6.95
2022-09-17T22:39:31.095Z,4.80
2022-09-17T22:42:00.279Z,4.15
2022-09-17T22:44:29.209Z,4.47
2022-09-17T22:46:58.410Z,4.22
2022-09-17T22:49:27.529Z,3.55
2022-09-17T22:51:56.636Z,3.40
2022-09-17T22:54:25.697Z,4.13
2022-09-17T22:56:56.022Z,3.05
2022-09-17T22:59:24.820Z,3.15
2022-09-17T23:01:54.264Z,3.20
2022-09-17T23:04:23.397Z,2.88
2022-09-17T23:06:52.230Z,2.75
2022-09-17T23:09:21.527Z,2.75
2022-09-17T23:11:50.593Z,2.80
2022-09-17T23:14:20.903Z,3.15
2022-09-17T23:16:50.564Z,2.92
2022-09-17T23:19:20.839Z,3.67
2022-09-17T23:21:50.032Z,2.33
2022-09-17T23:24:20.888Z,2.35
2022-09-17T23:26:50.878Z,2.47
2022-09-17T23:29:21.985Z,3.63
2022-09-17T23:31:51.015Z,2.63
2022-09-17T23:34:19.952Z,2.63
2022-09-17T23:36:49.262Z,2.15
2022-09-17T23:39:18.107Z,2.95
2022-09-17T23:41:48.123Z,2.65
2022-09-17T23:44:17.427Z,2.58
2022-09-17T23:46:48.618Z,2.22
2022-09-17T23:49:18.200Z,2.40
2022-09-17T23:51:47.589Z,3.15
2022-09-17T23:54:16.675Z,2.20
2022-09-17T23:56:45.653Z,1.90
2022-09-17T23:59:14.796Z,2.08
